Time;durP1;ratioP1;P1;durP2;ratioP2;P2;SDS_P1;SDS_P2;PMS_P1;PMS_P2;Temp;Humidity;BMP_temperature;BMP_pressure;BME280_temperature;BME280_humidity;BME280_pressure;Samples;Min_cycle;Max_cycle;Signal;HPM_P1;HPM_P2
2021/01/20 00:02:01;;;;;;;0.93;0.93;;;7.70;99.90;;;;;;5054634;28;20163;-77
2021/01/20 00:04:26;;;;;;;1.70;0.77;;;7.80;99.90;;;;;;5036644;28;20258;-76
2021/01/20 00:06:52;;;;;;;0.40;0.40;;;7.70;99.90;;;;;;5054517;28;20167;-77
2021/01/20 00:09:18;;;;;;;1.92;1.35;;;7.70;99.90;;;;;;5054462;28;20623;-77
2021/01/20 00:11:43;;;;;;;0.93;0.93;;;7.70;99.90;;;;;;5054356;28;20229;-77
2021/01/20 00:14:13;;;;;;;1.23;0.73;;;7.80;99.90;;;;;;5036488;28;20223;-77
2021/01/20 00:16:38;;;;;;;0.73;0.73;;;7.90;99.90;;;;;;5052912;28;20183;-77
2021/01/20 00:19:04;;;;;;;1.08;1.08;;;8.00;99.90;;;;;;5054291;28;20195;-77
2021/01/20 00:21:29;;;;;;;0.30;0.30;;;7.90;99.90;;;;;;5054115;28;20220;-76
2021/01/20 00:23:55;;;;;;;0.88;0.70;;;7.80;99.90;;;;;;5054133;28;20246;-77
2021/01/20 00:26:20;;;;;;;0.98;0.90;;;7.80;99.90;;;;;;5053108;28;20561;-76
2021/01/20 00:28:47;;;;;;;5.47;1.10;;;7.70;99.90;;;;;;5054043;28;20171;-77
2021/01/20 00:31:13;;;;;;;1.02;0.93;;;7.80;99.90;;;;;;5054009;28;20631;-76
2021/01/20 00:33:39;;;;;;;0.45;0.45;;;7.80;99.90;;;;;;5053900;28;20189;-77
2021/01/20 00:36:05;;;;;;;0.38;0.38;;;7.90;99.90;;;;;;5054020;28;20221;-77
2021/01/20 00:38:31;;;;;;;1.10;0.50;;;8.00;99.90;;;;;;5035983;28;20175;-77
2021/01/20 00:40:56;;;;;;;1.45;0.80;;;7.90;99.90;;;;;;5053796;28;20286;-77
2021/01/20 00:43:22;;;;;;;2.28;1.08;;;7.90;99.90;;;;;;5053871;28;20178;-77
2021/01/20 00:45:48;;;;;;;3.92;1.02;;;7.90;99.90;;;;;;5053810;28;20187;-77
2021/01/20 00:48:13;;;;;;;0.30;0.30;;;8.00;99.90;;;;;;5053742;28;20183;-77
2021/01/20 00:50:39;;;;;;;2.75;1.25;;;8.00;99.90;;;;;;5053765;28;20525;-77
2021/01/20 00:53:04;;;;;;;0.32;0.32;;;8.00;99.90;;;;;;5053622;28;20159;-77
2021/01/20 00:55:30;;;;;;;1.38;1.27;;;8.00;99.90;;;;;;5053420;28;20199;-77
2021/01/20 00:57:55;;;;;;;1.05;0.40;;;8.00;99.90;;;;;;5053547;28;20193;-77
2021/01/20 01:00:22;;;;;;;3.08;0.80;;;8.10;99.90;;;;;;5053279;28;20280;-77
2021/01/20 01:02:49;;;;;;;0.20;0.20;;;8.10;99.90;;;;;;5053512;28;20160;-77
2021/01/20 01:05:15;;;;;;;0.68;0.68;;;8.10;99.90;;;;;;5053290;28;20183;-77
2021/01/20 01:07:41;;;;;;;1.13;1.13;;;8.20;99.90;;;;;;5053409;28;20168;-77
2021/01/20 01:10:07;;;;;;;0.55;0.55;;;8.20;99.90;;;;;;5053363;28;20174;-77
2021/01/20 01:12:32;;;;;;;0.28;0.28;;;8.00;99.90;;;;;;5053233;28;20214;-77
2021/01/20 01:14:58;;;;;;;2.15;0.77;;;7.90;99.90;;;;;;5053136;28;20230;-77
2021/01/20 01:17:24;;;;;;;0.60;0.60;;;8.00;99.90;;;;;;5053142;28;20525;-77
2021/01/20 01:19:49;;;;;;;1.48;0.88;;;7.90;99.90;;;;;;5053197;28;20225;-77
2021/01/20 01:22:15;;;;;;;0.95;0.80;;;7.90;99.90;;;;;;5035337;28;20163;-77
2021/01/20 01:24:41;;;;;;;0.55;0.50;;;7.90;99.90;;;;;;5052940;28;20190;-77
2021/01/20 01:27:06;;;;;;;0.80;0.80;;;7.90;99.90;;;;;;5053136;28;20623;-77
2021/01/20 01:29:32;;;;;;;4.05;1.08;;;7.80;99.90;;;;;;5053091;28;20603;-76
2021/01/20 01:31:58;;;;;;;0.22;0.22;;;7.80;99.90;;;;;;5053093;28;20163;-77
2021/01/20 01:34:23;;;;;;;0.43;0.43;;;7.80;99.90;;;;;;5052930;28;20229;-77
2021/01/20 01:36:49;;;;;;;0.43;0.43;;;7.80;99.90;;;;;;5034809;28;20522;-76
2021/01/20 01:39:15;;;;;;;5.43;0.70;;;7.90;99.90;;;;;;5035153;28;20191;-77
2021/01/20 01:41:41;;;;;;;0.68;0.68;;;7.80;99.90;;;;;;5053031;28;20171;-77
2021/01/20 01:44:07;;;;;;;0.40;0.40;;;7.80;99.90;;;;;;5053083;28;20756;-76
2021/01/20 01:46:33;;;;;;;1.45;1.30;;;7.80;99.90;;;;;;5052701;28;20195;-76
2021/01/20 01:48:58;;;;;;;0.40;0.40;;;7.80;99.90;;;;;;5035067;28;20159;-76
2021/01/20 01:51:24;;;;;;;1.65;1.30;;;7.90;99.90;;;;;;5035294;28;20198;-76
2021/01/20 01:53:51;;;;;;;1.10;0.80;;;7.80;99.90;;;;;;5035005;28;20258;-77
2021/01/20 01:56:17;;;;;;;0.90;0.43;;;7.90;99.90;;;;;;5052776;28;20187;-76
2021/01/20 01:58:44;;;;;;;0.45;0.35;;;7.80;99.90;;;;;;5052816;28;20203;-76
2021/01/20 02:01:09;;;;;;;0.90;0.60;;;7.80;99.90;;;;;;5052696;28;20209;-77
2021/01/20 02:03:35;;;;;;;0.68;0.68;;;7.90;99.90;;;;;;5051490;28;20254;-76
2021/01/20 02:06:01;;;;;;;0.20;0.20;;;7.80;99.90;;;;;;5053000;28;20194;-76
2021/01/20 02:08:27;;;;;;;3.30;1.85;;;7.80;99.90;;;;;;5052584;28;20159;-76
2021/01/20 02:10:59;;;;;;;0.30;0.30;;;7.80;99.90;;;;;;5052691;28;20201;-76
2021/01/20 02:13:33;;;;;;;0.50;0.50;;;7.80;99.90;;;;;;5034575;28;20270;-76
2021/01/20 02:16:29;;;;;;;0.50;0.50;;;7.80;99.90;;;;;;5052614;28;20187;-77
2021/01/20 02:18:57;;;;;;;0.30;0.30;;;7.90;99.90;;;;;;5044361;28;20182;-76
2021/01/20 02:21:34;;;;;;;0.60;0.60;;;7.80;99.90;;;;;;5034618;28;20687;-76
2021/01/20 02:24:04;;;;;;;0.60;0.60;;;7.90;99.90;;;;;;5034653;28;20166;-76
2021/01/20 02:26:41;;;;;;;0.95;0.95;;;7.90;99.90;;;;;;5034593;28;20227;-77
2021/01/20 02:29:31;;;;;;;0.73;0.73;;;7.90;99.90;;;;;;5052572;28;20238;-76
2021/01/20 02:32:00;;;;;;;0.38;0.38;;;7.80;99.90;;;;;;5052497;28;20596;-76
2021/01/20 02:34:26;;;;;;;0.10;0.10;;;7.70;99.90;;;;;;5051065;28;20597;-76
2021/01/20 02:36:53;;;;;;;0.70;0.70;;;7.80;99.90;;;;;;5052406;28;20236;-76
2021/01/20 02:39:20;;;;;;;1.15;1.05;;;7.80;99.90;;;;;;5034520;28;20199;-76
2021/01/20 02:41:45;;;;;;;0.88;0.63;;;7.80;99.90;;;;;;5034587;28;20216;-76
2021/01/20 02:44:11;;;;;;;12.63;1.52;;;7.70;99.90;;;;;;5034635;28;20175;-76
2021/01/20 02:46:39;;;;;;;0.38;0.38;;;7.70;99.90;;;;;;5052221;28;20270;-76
2021/01/20 02:49:05;;;;;;;0.95;0.95;;;7.70;99.90;;;;;;5053355;28;20258;-76
2021/01/20 02:51:58;;;;;;;0.60;0.60;;;7.80;99.90;;;;;;5056038;28;20246;-76
2021/01/20 02:54:26;;;;;;;0.98;0.98;;;7.80;99.90;;;;;;5055808;28;20163;-77
2021/01/20 02:56:52;;;;;;;1.15;0.93;;;7.90;99.90;;;;;;5038234;28;20496;-77
2021/01/20 02:59:21;;;;;;;0.35;0.35;;;8.00;99.90;;;;;;5054385;28;20740;-76
2021/01/20 03:01:51;;;;;;;0.73;0.73;;;8.10;99.90;;;;;;5055841;28;20171;-77
2021/01/20 03:04:19;;;;;;;3.67;1.65;;;8.10;99.90;;;;;;5055744;28;20160;-76
2021/01/20 03:06:46;;;;;;;0.90;0.90;;;8.10;99.90;;;;;;5055554;28;20603;-77
2021/01/20 03:09:14;;;;;;;0.73;0.73;;;8.10;99.90;;;;;;5055981;28;20163;-77
2021/01/20 03:11:47;;;;;;;1.45;1.13;;;8.10;99.90;;;;;;5054285;28;20193;-77
2021/01/20 03:14:14;;;;;;;0.63;0.45;;;8.20;99.90;;;;;;5054105;28;20225;-78
2021/01/20 03:16:39;;;;;;;1.00;0.75;;;8.20;99.90;;;;;;5055373;28;20183;-77
2021/01/20 03:19:05;;;;;;;0.20;0.20;;;8.20;99.90;;;;;;5055436;28;20163;-77
2021/01/20 03:21:31;;;;;;;0.40;0.40;;;8.40;99.90;;;;;;5037468;28;20179;-77
2021/01/20 03:23:56;;;;;;;0.40;0.40;;;8.30;99.90;;;;;;5055361;28;20522;-77
2021/01/20 03:26:22;;;;;;;0.45;0.43;;;8.40;99.90;;;;;;5055224;28;20256;-77
2021/01/20 03:28:47;;;;;;;10.73;0.77;;;8.40;99.90;;;;;;5037437;28;20167;-77
2021/01/20 03:31:13;;;;;;;0.50;0.50;;;8.40;99.90;;;;;;5053989;28;20691;-77
2021/01/20 03:33:39;;;;;;;0.95;0.95;;;8.40;99.90;;;;;;5055225;28;20171;-77
2021/01/20 03:36:05;;;;;;;0.52;0.52;;;8.30;99.90;;;;;;5055173;28;20274;-77
2021/01/20 03:38:30;;;;;;;0.38;0.38;;;8.20;99.90;;;;;;5055176;28;20163;-77
2021/01/20 03:40:56;;;;;;;1.95;1.45;;;8.30;99.90;;;;;;5055157;28;20214;-77
2021/01/20 03:43:21;;;;;;;0.30;0.30;;;8.40;99.90;;;;;;5055066;28;20502;-77
2021/01/20 03:45:47;;;;;;;1.70;1.15;;;8.50;99.90;;;;;;5054903;28;20260;-77
2021/01/20 03:48:13;;;;;;;0.50;0.50;;;8.70;99.90;;;;;;5055065;28;20649;-78
2021/01/20 03:50:38;;;;;;;0.30;0.30;;;8.60;99.90;;;;;;5054963;28;20195;-77
2021/01/20 03:53:04;;;;;;;0.57;0.57;;;8.60;99.90;;;;;;5054834;28;20193;-78
2021/01/20 03:55:29;;;;;;;0.70;0.70;;;8.60;99.90;;;;;;5054701;28;20187;-77
2021/01/20 03:57:55;;;;;;;0.28;0.28;;;8.60;99.90;;;;;;5054772;28;20163;-78
2021/01/20 04:00:21;;;;;;;0.88;0.68;;;8.50;99.90;;;;;;5054364;28;20229;-77
2021/01/20 04:02:46;;;;;;;0.40;0.40;;;8.50;99.90;;;;;;5054426;28;20657;-77
2021/01/20 04:05:12;;;;;;;0.30;0.30;;;8.50;99.90;;;;;;5054446;28;20188;-77
2021/01/20 04:07:38;;;;;;;0.90;0.90;;;8.60;99.90;;;;;;5054562;28;20568;-77
2021/01/20 04:10:07;;;;;;;0.20;0.20;;;8.70;99.90;;;;;;5054526;28;20167;-77
2021/01/20 04:12:36;;;;;;;0.50;0.50;;;8.90;99.90;;;;;;5054348;28;20143;-77
2021/01/20 04:15:07;;;;;;;0.45;0.40;;;9.00;99.90;;;;;;5036260;28;20215;-77
2021/01/20 04:17:33;;;;;;;1.10;1.10;;;8.90;99.90;;;;;;5054235;28;20254;-77
2021/01/20 04:19:58;;;;;;;0.32;0.32;;;9.00;99.90;;;;;;5054284;28;20278;-78
2021/01/20 04:22:24;;;;;;;0.22;0.22;;;9.00;99.90;;;;;;5054205;28;20246;-77
2021/01/20 04:24:49;;;;;;;0.30;0.30;;;9.00;99.90;;;;;;5054065;28;20202;-77
2021/01/20 04:27:16;;;;;;;0.90;0.63;;;9.00;99.90;;;;;;5054167;28;20163;-77
2021/01/20 04:29:41;;;;;;;0.40;0.40;;;8.90;99.90;;;;;;5054073;28;20704;-78
2021/01/20 04:32:07;;;;;;;0.28;0.28;;;8.90;99.90;;;;;;5054081;28;20175;-77
2021/01/20 04:34:32;;;;;;;0.45;0.40;;;9.00;99.90;;;;;;5053916;28;20163;-78
2021/01/20 04:36:58;;;;;;;0.55;0.55;;;9.00;99.90;;;;;;5035937;28;20637;-77
2021/01/20 04:39:24;;;;;;;0.32;0.32;;;9.10;99.90;;;;;;5053901;28;20183;-77
2021/01/20 04:41:49;;;;;;;0.32;0.32;;;9.00;99.90;;;;;;5053787;28;20167;-77
2021/01/20 04:44:15;;;;;;;0.10;0.10;;;9.10;99.90;;;;;;5053912;28;20171;-77
2021/01/20 04:46:43;;;;;;;0.40;0.40;;;9.10;99.90;;;;;;5035933;28;21064;-77
2021/01/20 04:49:16;;;;;;;0.20;0.20;;;9.10;99.90;;;;;;5035791;28;20164;-78
2021/01/20 04:51:43;;;;;;;0.43;0.43;;;9.00;99.90;;;;;;5053514;28;20710;-78
2021/01/20 04:54:11;;;;;;;0.17;0.17;;;8.90;99.90;;;;;;5052214;28;20179;-77
2021/01/20 04:56:38;;;;;;;4.95;1.10;;;8.90;99.90;;;;;;5053528;28;20673;-77
2021/01/20 04:59:04;;;;;;;0.10;0.10;;;8.90;99.90;;;;;;5035480;28;20193;-77
2021/01/20 05:01:30;;;;;;;0.10;0.10;;;8.80;99.90;;;;;;5035564;28;20167;-77
2021/01/20 05:03:58;;;;;;;0.30;0.30;;;8.90;99.90;;;;;;5053377;28;20167;-77
2021/01/20 05:06:24;;;;;;;8.43;1.20;;;8.90;99.90;;;;;;5053289;28;20194;-77
2021/01/20 05:08:49;;;;;;;0.28;0.28;;;8.80;99.90;;;;;;5053257;28;20167;-77
2021/01/20 05:11:15;;;;;;;0.20;0.20;;;8.80;99.90;;;;;;5052731;28;20533;-77
2021/01/20 05:13:42;;;;;;;0.55;0.55;;;8.90;99.90;;;;;;5035014;28;20225;-77
2021/01/20 05:18:48;;;;;;;0.60;0.60;;;8.60;99.90;;;;;;5032819;28;20219;-76
2021/01/20 05:21:17;;;;;;;0.22;0.22;;;8.50;99.90;;;;;;5033580;28;20203;-76
2021/01/20 05:23:43;;;;;;;0.20;0.20;;;8.30;99.90;;;;;;5016258;28;20203;-76
2021/01/20 05:26:09;;;;;;;1.35;1.35;;;8.40;99.90;;;;;;5030868;28;20210;-75
2021/01/20 05:28:36;;;;;;;0.35;0.35;;;8.40;99.90;;;;;;5053687;28;20174;-76
2021/01/20 05:31:04;;;;;;;0.40;0.40;;;8.30;99.90;;;;;;5053563;28;20516;-76
2021/01/20 05:33:38;;;;;;;0.47;0.47;;;8.40;99.90;;;;;;5053857;28;20702;-75
2021/01/20 05:36:06;;;;;;;0.25;0.25;;;8.30;99.90;;;;;;5035610;28;20187;-76
2021/01/20 05:38:42;;;;;;;0.35;0.35;;;8.30;99.90;;;;;;5053629;28;20182;-77
2021/01/20 05:41:21;;;;;;;0.20;0.20;;;8.20;99.90;;;;;;5034372;28;20708;-76
2021/01/20 05:43:48;;;;;;;2.70;0.85;;;8.10;99.90;;;;;;5053328;28;20170;-76
2021/01/20 05:46:27;;;;;;;0.20;0.20;;;8.10;99.90;;;;;;5053563;28;20195;-76
2021/01/20 05:48:53;;;;;;;0.30;0.30;;;8.10;99.90;;;;;;5054595;28;20196;-78
2021/01/20 05:51:19;;;;;;;0.20;0.20;;;8.10;99.90;;;;;;5055676;28;20175;-79
2021/01/20 05:53:55;;;;;;;0.28;0.28;;;8.20;99.90;;;;;;5054575;28;20312;-78
2021/01/20 05:56:26;;;;;;;0.52;0.52;;;8.20;99.90;;;;;;5057459;28;20214;-79
2021/01/20 05:58:52;;;;;;;0.20;0.20;;;8.30;99.90;;;;;;5056950;28;20205;-79
2021/01/20 06:01:19;;;;;;;0.82;0.82;;;8.30;99.90;;;;;;5037940;28;20220;-80
2021/01/20 06:03:45;;;;;;;0.20;0.20;;;8.30;99.90;;;;;;5053876;28;20281;-79
2021/01/20 06:06:12;;;;;;;0.30;0.30;;;8.30;99.90;;;;;;5034832;28;20286;-80
2021/01/20 06:08:37;;;;;;;0.68;0.68;;;8.40;99.90;;;;;;5052743;28;20163;-79
2021/01/20 06:11:04;;;;;;;0.30;0.30;;;8.40;99.90;;;;;;5052854;28;20171;-79
2021/01/20 06:13:31;;;;;;;0.30;0.30;;;8.40;99.90;;;;;;5052658;28;20555;-79
2021/01/20 06:15:59;;;;;;;0.20;0.20;;;8.20;99.90;;;;;;5034870;28;20229;-80
2021/01/20 06:18:29;;;;;;;1.40;0.85;;;8.20;99.90;;;;;;5034492;28;20314;-75
2021/01/20 06:20:55;;;;;;;0.25;0.25;;;8.20;99.90;;;;;;5051336;28;20256;-75
2021/01/20 06:23:24;;;;;;;4.18;1.70;;;8.30;99.90;;;;;;5052144;28;20368;-75
2021/01/20 06:26:00;;;;;;;0.40;0.40;;;8.30;99.90;;;;;;5056450;28;20230;-74
2021/01/20 06:28:26;;;;;;;0.30;0.30;;;8.50;99.90;;;;;;5056374;28;20517;-75
2021/01/20 06:30:53;;;;;;;0.45;0.45;;;8.60;99.90;;;;;;5038633;28;20164;-75
2021/01/20 06:33:20;;;;;;;0.73;0.73;;;8.40;99.90;;;;;;5056277;28;20658;-74
2021/01/20 06:35:48;;;;;;;0.73;0.73;;;8.40;99.90;;;;;;5056565;28;20195;-75
2021/01/20 06:38:29;;;;;;;0.32;0.32;;;8.40;99.90;;;;;;5038313;28;20178;-75
2021/01/20 06:40:56;;;;;;;1.17;1.08;;;8.30;99.90;;;;;;5038325;28;20203;-75
2021/01/20 06:43:36;;;;;;;0.13;0.13;;;8.30;99.90;;;;;;5056141;28;20201;-76
2021/01/20 06:46:12;;;;;;;0.20;0.20;;;8.30;99.90;;;;;;5056053;28;20214;-75
2021/01/20 06:49:03;;;;;;;0.20;0.20;;;8.40;99.90;;;;;;5056323;28;20165;-76
2021/01/20 06:51:29;;;;;;;0.28;0.28;;;8.30;99.90;;;;;;5038242;28;20174;-75
2021/01/20 06:54:12;;;;;;;0.10;0.10;;;8.40;99.90;;;;;;5056032;28;20168;-76
2021/01/20 06:56:39;;;;;;;1.00;0.93;;;8.40;99.90;;;;;;5055962;28;20670;-76
2021/01/20 06:59:32;;;;;;;0.20;0.20;;;8.40;99.90;;;;;;5055614;28;20201;-76
2021/01/20 07:02:08;;;;;;;0.40;0.40;;;8.50;99.90;;;;;;5056050;28;20175;-76
2021/01/20 07:04:37;;;;;;;0.30;0.30;;;8.60;99.90;;;;;;5037951;28;20569;-75
2021/01/20 07:07:06;;;;;;;0.20;0.20;;;8.60;99.90;;;;;;5055942;28;20167;-76
2021/01/20 07:09:51;;;;;;;0.38;0.38;;;8.50;99.90;;;;;;5053223;28;20281;-76
2021/01/20 07:12:21;;;;;;;0.30;0.30;;;8.60;99.90;;;;;;5055698;28;20164;-76
2021/01/20 07:14:48;;;;;;;0.20;0.20;;;8.60;99.90;;;;;;5039205;28;20195;-76
2021/01/20 07:17:15;;;;;;;0.30;0.30;;;8.50;99.90;;;;;;5040167;28;20352;-76
2021/01/20 07:19:43;;;;;;;0.43;0.43;;;8.60;99.90;;;;;;5055092;28;20277;-76
2021/01/20 07:22:09;;;;;;;0.30;0.30;;;8.80;99.90;;;;;;5055078;28;20175;-76
2021/01/20 07:24:35;;;;;;;0.20;0.20;;;8.70;99.90;;;;;;5055045;28;20221;-76
2021/01/20 07:27:09;;;;;;;0.20;0.20;;;8.70;99.90;;;;;;5055335;28;20175;-76
2021/01/20 07:29:35;;;;;;;0.35;0.35;;;8.70;99.90;;;;;;5055286;28;20247;-76
2021/01/20 07:32:02;;;;;;;0.20;0.20;;;8.80;99.90;;;;;;5056319;28;20313;-75
2021/01/20 07:34:35;;;;;;;6.05;0.57;;;8.80;99.90;;;;;;5054229;28;20164;-76
2021/01/20 07:37:11;;;;;;;0.30;0.30;;;8.80;99.90;;;;;;5055206;28;20250;-76
2021/01/20 07:39:37;;;;;;;0.40;0.40;;;8.90;99.90;;;;;;5054955;28;20198;-76
2021/01/20 07:42:05;;;;;;;0.20;0.20;;;8.70;99.90;;;;;;5054742;28;20186;-76
2021/01/20 07:44:31;;;;;;;0.20;0.20;;;8.80;99.90;;;;;;5036917;28;20208;-76
2021/01/20 07:47:07;;;;;;;0.35;0.35;;;9.00;99.90;;;;;;5054829;28;20186;-76
2021/01/20 07:49:34;;;;;;;0.52;0.52;;;9.10;99.90;;;;;;5054584;28;20204;-81
2021/01/20 07:52:09;;;;;;;0.25;0.25;;;9.00;99.90;;;;;;5054377;28;20167;-76
2021/01/20 07:54:36;;;;;;;0.55;0.55;;;9.00;99.90;;;;;;5054514;28;20544;-77
2021/01/20 07:57:03;;;;;;;0.17;0.17;;;9.00;99.90;;;;;;5054705;28;20755;-77
2021/01/20 07:59:31;;;;;;;0.55;0.55;;;9.10;99.90;;;;;;5054652;28;20226;-77
2021/01/20 08:02:25;;;;;;;0.20;0.20;;;9.10;99.90;;;;;;5054794;28;20185;-77
2021/01/20 08:05:01;;;;;;;0.40;0.40;;;9.10;99.90;;;;;;5037230;28;20207;-74
2021/01/20 08:07:26;;;;;;;0.20;0.20;;;9.10;99.90;;;;;;5054282;28;20556;-76
2021/01/20 08:09:52;;;;;;;0.47;0.47;;;9.00;99.90;;;;;;5037714;28;20174;-72
2021/01/20 08:12:23;;;;;;;0.55;0.55;;;8.90;99.90;;;;;;5054391;28;20204;-74
2021/01/20 08:14:50;;;;;;;0.73;0.73;;;8.90;99.90;;;;;;5036641;28;20195;-74
2021/01/20 08:17:17;;;;;;;0.70;0.70;;;9.00;99.90;;;;;;5055355;28;20239;-76
2021/01/20 08:19:44;;;;;;;0.38;0.38;;;9.10;99.90;;;;;;5060045;28;20190;-77
2021/01/20 08:22:13;;;;;;;1.15;1.05;;;9.10;99.90;;;;;;5071196;28;20142;-75
2021/01/20 08:24:46;;;;;;;0.43;0.43;;;9.20;99.90;;;;;;5071218;28;20687;-76
2021/01/20 08:27:12;;;;;;;0.38;0.38;;;9.20;99.90;;;;;;5060715;28;20180;-76
2021/01/20 08:30:08;;;;;;;0.93;0.93;;;9.20;99.90;;;;;;5037225;28;20170;-76
2021/01/20 08:32:34;;;;;;;0.30;0.30;;;9.30;99.90;;;;;;5042168;28;20540;-76
2021/01/20 08:35:00;;;;;;;1.58;0.52;;;9.10;99.90;;;;;;5054423;28;20179;-75
2021/01/20 08:37:36;;;;;;;0.52;0.50;;;9.10;99.90;;;;;;5055243;28;20182;-75
2021/01/20 08:40:04;;;;;;;0.40;0.40;;;9.10;99.90;;;;;;5054873;28;20567;-75
2021/01/20 08:42:36;;;;;;;0.40;0.40;;;9.10;99.90;;;;;;5055162;28;20151;-76
2021/01/20 08:45:14;;;;;;;0.28;0.28;;;9.20;99.90;;;;;;5054490;28;20195;-78
2021/01/20 08:48:07;;;;;;;0.32;0.32;;;9.30;99.90;;;;;;5052429;28;20219;-80
2021/01/20 08:50:33;;;;;;;0.20;0.20;;;9.20;99.90;;;;;;5053887;28;20175;-79
2021/01/20 08:53:00;;;;;;;0.30;0.30;;;9.30;99.90;;;;;;5054151;28;20158;-78
2021/01/20 08:55:30;;;;;;;0.20;0.20;;;9.30;99.90;;;;;;5055062;28;20195;-81
2021/01/20 08:58:18;;;;;;;0.30;0.30;;;9.40;99.90;;;;;;5036711;28;20233;-82
2021/01/20 09:00:46;;;;;;;9.85;1.20;;;9.50;99.90;;;;;;5055411;28;20596;-86
2021/01/20 09:03:21;;;;;;;1.17;1.17;;;9.40;99.90;;;;;;5054135;28;20508;-77
2021/01/20 09:05:49;;;;;;;0.20;0.20;;;9.40;99.90;;;;;;5052204;28;20201;-77
2021/01/20 09:08:15;;;;;;;2.03;1.77;;;9.40;99.90;;;;;;5052493;28;20668;-78
2021/01/20 09:10:43;;;;;;;0.20;0.20;;;9.40;99.90;;;;;;5054355;28;20620;-76
2021/01/20 09:13:09;;;;;;;0.70;0.70;;;9.40;99.90;;;;;;5053648;28;20170;-76
2021/01/20 09:15:34;;;;;;;0.52;0.52;;;9.40;99.90;;;;;;5053128;28;20717;-75
2021/01/20 09:18:00;;;;;;;1.08;0.73;;;9.50;99.90;;;;;;5052943;28;20225;-75
2021/01/20 09:20:26;;;;;;;1.38;1.25;;;9.60;99.90;;;;;;5052995;28;20207;-76
2021/01/20 09:22:52;;;;;;;3.35;0.40;;;9.70;99.90;;;;;;5052906;28;20164;-75
2021/01/20 09:25:17;;;;;;;0.40;0.40;;;9.60;99.90;;;;;;5052939;28;20558;-75
2021/01/20 09:27:43;;;;;;;0.32;0.32;;;9.50;99.90;;;;;;5052983;28;20217;-76
2021/01/20 09:30:09;;;;;;;2.08;1.38;;;9.60;99.90;;;;;;5053007;28;20603;-76
2021/01/20 09:32:39;;;;;;;0.45;0.45;;;9.70;99.90;;;;;;5052892;28;20171;-76
2021/01/20 09:35:07;;;;;;;0.43;0.43;;;9.60;99.90;;;;;;5052580;28;20209;-75
2021/01/20 09:37:32;;;;;;;0.30;0.30;;;9.60;99.90;;;;;;5052755;28;20186;-75
2021/01/20 09:39:58;;;;;;;0.20;0.20;;;9.70;99.90;;;;;;5052935;28;20638;-75
2021/01/20 09:42:23;;;;;;;0.75;0.75;;;9.70;99.90;;;;;;5052961;28;20526;-84
2021/01/20 09:44:49;;;;;;;0.30;0.30;;;9.90;99.90;;;;;;5052669;28;20270;-76
2021/01/20 09:47:14;;;;;;;0.20;0.20;;;9.80;99.90;;;;;;5052943;28;20171;-77
2021/01/20 09:49:42;;;;;;;0.45;0.45;;;9.90;99.90;;;;;;5052889;28;20168;-75
2021/01/20 09:52:10;;;;;;;0.52;0.52;;;9.90;99.90;;;;;;5053146;28;20167;-77
2021/01/20 09:54:36;;;;;;;0.20;0.20;;;10.00;99.90;;;;;;5051282;28;20212;-76
2021/01/20 09:57:02;;;;;;;0.30;0.30;;;10.00;99.90;;;;;;5052885;28;20159;-76
2021/01/20 09:59:27;;;;;;;0.20;0.20;;;9.90;99.90;;;;;;5056024;28;20744;-76
2021/01/20 10:01:53;;;;;;;2.25;0.40;;;9.80;99.90;;;;;;5056672;28;20183;-76
2021/01/20 10:04:18;;;;;;;0.40;0.40;;;9.90;99.90;;;;;;5056750;28;20187;-76
2021/01/20 10:06:44;;;;;;;0.20;0.20;;;10.00;99.90;;;;;;5056830;28;20191;-76
2021/01/20 10:09:09;;;;;;;0.32;0.32;;;9.80;99.90;;;;;;5055377;28;20167;-75
2021/01/20 10:11:35;;;;;;;0.40;0.40;;;9.90;99.90;;;;;;5056411;28;20155;-77
2021/01/20 10:14:00;;;;;;;0.28;0.28;;;10.10;99.90;;;;;;5056695;28;20163;-77
2021/01/20 10:16:26;;;;;;;0.45;0.40;;;10.20;99.90;;;;;;5056452;28;20534;-76
2021/01/20 10:18:51;;;;;;;0.77;0.77;;;10.20;99.90;;;;;;5038443;28;20669;-75
2021/01/20 10:21:17;;;;;;;5.05;0.68;;;10.20;99.90;;;;;;5056365;28;20713;-75
2021/01/20 10:23:42;;;;;;;0.30;0.30;;;10.20;99.90;;;;;;5056251;28;20167;-76
2021/01/20 10:26:08;;;;;;;0.38;0.38;;;10.30;99.90;;;;;;5038185;28;20191;-76
2021/01/20 10:28:33;;;;;;;0.52;0.52;;;10.20;99.90;;;;;;5056225;28;20167;-76
2021/01/20 10:30:59;;;;;;;7.57;1.65;;;10.10;99.90;;;;;;5056341;28;20174;-76
2021/01/20 10:33:24;;;;;;;0.73;0.73;;;10.20;99.90;;;;;;5056175;28;20155;-76
2021/01/20 10:35:50;;;;;;;0.82;0.82;;;10.20;99.90;;;;;;5038217;28;20654;-76
2021/01/20 10:38:16;;;;;;;0.20;0.20;;;10.20;99.90;;;;;;5056128;28;20160;-76
2021/01/20 10:40:41;;;;;;;0.13;0.13;;;10.20;99.90;;;;;;5038234;28;20210;-76
2021/01/20 10:43:07;;;;;;;1.88;0.55;;;10.10;99.90;;;;;;5055932;28;20159;-76
2021/01/20 10:45:33;;;;;;;0.20;0.20;;;10.40;99.90;;;;;;5055690;28;20187;-76
2021/01/20 10:47:59;;;;;;;0.20;0.20;;;10.50;99.90;;;;;;5060420;28;20170;-77
2021/01/20 10:50:24;;;;;;;0.63;0.22;;;10.60;99.90;;;;;;5070226;28;20215;-78
2021/01/20 10:52:50;;;;;;;0.30;0.30;;;10.50;99.90;;;;;;5071500;28;20187;-78
2021/01/20 10:55:16;;;;;;;2.75;1.17;;;10.50;99.90;;;;;;5059191;28;20681;-77
2021/01/20 10:57:41;;;;;;;0.35;0.35;;;10.50;99.90;;;;;;5050709;28;20235;-77
2021/01/20 11:00:07;;;;;;;0.30;0.30;;;10.60;99.90;;;;;;5053640;28;20191;-80
2021/01/20 11:02:33;;;;;;;0.20;0.20;;;10.60;99.90;;;;;;5054587;28;20167;-76
2021/01/20 11:04:58;;;;;;;0.30;0.30;;;10.70;99.90;;;;;;5051573;28;20194;-76
2021/01/20 11:07:24;;;;;;;0.50;0.50;;;11.00;99.90;;;;;;5050193;28;20183;-75
2021/01/20 11:09:51;;;;;;;0.77;0.77;;;11.00;99.90;;;;;;5035013;28;20187;-75
2021/01/20 11:12:17;;;;;;;0.32;0.32;;;10.90;99.90;;;;;;5053858;28;20171;-76
2021/01/20 11:14:42;;;;;;;0.60;0.60;;;10.70;99.90;;;;;;5052645;28;20171;-75
2021/01/20 11:17:09;;;;;;;6.03;0.52;;;10.90;99.90;;;;;;5054817;28;20218;-76
2021/01/20 11:19:34;;;;;;;0.47;0.47;;;10.70;99.90;;;;;;5054748;28;20662;-75
2021/01/20 11:22:00;;;;;;;0.30;0.30;;;10.80;99.90;;;;;;5046574;28;20189;-76
2021/01/20 11:24:25;;;;;;;0.40;0.40;;;10.70;99.90;;;;;;5053731;28;20202;-75
2021/01/20 11:26:51;;;;;;;0.28;0.28;;;10.80;99.90;;;;;;5054650;28;20199;-79
2021/01/20 11:29:17;;;;;;;0.40;0.40;;;10.90;99.90;;;;;;5054255;28;20572;-76
2021/01/20 11:31:42;;;;;;;0.52;0.52;;;11.00;99.90;;;;;;5054367;28;20340;-76
2021/01/20 11:34:08;;;;;;;0.20;0.20;;;11.10;99.90;;;;;;5056214;28;20155;-79
2021/01/20 11:36:34;;;;;;;0.20;0.20;;;11.10;99.90;;;;;;5058522;28;20202;-77
2021/01/20 11:39:00;;;;;;;0.38;0.30;;;11.20;99.90;;;;;;5056076;28;20519;-77
2021/01/20 11:41:25;;;;;;;0.30;0.30;;;11.30;99.90;;;;;;5055967;28;20199;-76
2021/01/20 11:43:51;;;;;;;1.88;1.10;;;11.10;99.90;;;;;;5058906;28;20163;-77
2021/01/20 11:46:20;;;;;;;0.52;0.52;;;11.10;99.90;;;;;;5059234;28;20270;-75
2021/01/20 11:48:47;;;;;;;1.80;0.82;;;11.30;99.90;;;;;;5057917;28;20183;-77
2021/01/20 11:51:14;;;;;;;0.25;0.25;;;11.20;99.90;;;;;;5054436;28;20191;-76
2021/01/20 11:53:39;;;;;;;1.10;0.50;;;11.20;99.90;;;;;;5055277;28;20216;-78
2021/01/20 11:56:05;;;;;;;0.52;0.40;;;11.30;99.90;;;;;;5036773;28;20195;-76
2021/01/20 11:58:33;;;;;;;1.33;0.57;;;11.10;99.90;;;;;;5055689;28;20171;-78
2021/01/20 12:00:59;;;;;;;0.30;0.30;;;11.10;99.90;;;;;;5054908;28;20245;-78
2021/01/20 12:03:25;;;;;;;0.20;0.20;;;11.10;99.90;;;;;;5055216;28;20183;-76
2021/01/20 12:05:52;;;;;;;0.68;0.68;;;11.20;99.90;;;;;;5054579;28;20600;-78
2021/01/20 12:08:17;;;;;;;0.47;0.47;;;11.20;99.90;;;;;;5054901;28;20167;-77
2021/01/20 12:10:44;;;;;;;0.30;0.30;;;11.30;99.90;;;;;;5054378;28;20641;-76
2021/01/20 12:13:11;;;;;;;0.20;0.20;;;11.30;99.90;;;;;;5054722;28;20198;-76
2021/01/20 12:15:37;;;;;;;0.30;0.30;;;11.40;99.90;;;;;;5055185;28;20195;-76
2021/01/20 12:18:02;;;;;;;0.50;0.50;;;11.50;99.90;;;;;;5053548;28;20280;-76
2021/01/20 12:20:28;;;;;;;0.30;0.30;;;11.70;99.90;;;;;;5054113;28;20305;-76
2021/01/20 12:22:53;;;;;;;0.60;0.60;;;11.60;99.90;;;;;;5053236;28;20186;-76
2021/01/20 12:25:19;;;;;;;0.73;0.70;;;11.60;99.90;;;;;;5036964;28;20194;-77
2021/01/20 12:27:44;;;;;;;0.82;0.82;;;11.60;99.90;;;;;;5054628;28;20250;-76
2021/01/20 12:30:11;;;;;;;0.30;0.30;;;11.40;99.90;;;;;;5054692;28;20607;-79
2021/01/20 12:32:37;;;;;;;1.05;1.05;;;11.30;99.90;;;;;;5054014;28;20278;-74
2021/01/20 12:35:04;;;;;;;0.40;0.40;;;11.40;99.90;;;;;;5053402;28;20681;-74
2021/01/20 12:37:30;;;;;;;0.82;0.73;;;11.50;99.90;;;;;;5052657;28;20195;-77
2021/01/20 12:39:55;;;;;;;0.45;0.45;;;11.80;99.90;;;;;;5045399;28;20226;-81
2021/01/20 12:42:21;;;;;;;0.28;0.28;;;11.80;99.90;;;;;;5053083;28;20175;-78
2021/01/20 12:44:47;;;;;;;0.73;0.32;;;11.90;99.90;;;;;;5055644;28;20183;-78
2021/01/20 12:47:12;;;;;;;0.40;0.40;;;11.90;99.90;;;;;;5053243;28;20198;-78
2021/01/20 12:49:38;;;;;;;0.45;0.45;;;12.10;99.90;;;;;;5036039;28;20197;-79
2021/01/20 12:52:04;;;;;;;0.68;0.55;;;11.80;99.90;;;;;;5053429;28;20645;-78
2021/01/20 12:54:30;;;;;;;0.43;0.40;;;11.70;99.90;;;;;;5053858;28;20189;-79
2021/01/20 12:56:56;;;;;;;0.40;0.40;;;11.70;99.90;;;;;;5053520;28;20614;-78
2021/01/20 12:59:21;;;;;;;0.20;0.20;;;11.60;99.90;;;;;;5053415;28;20163;-84
2021/01/20 13:01:47;;;;;;;0.20;0.20;;;11.60;99.90;;;;;;5050275;28;20163;-78